sensor_id;sensor_type;location;lat;lon;timestamp;temperature;humidity
11736;DHT22;5924;51.398;7.088;2023-03-14T00:01:15;10.70;99.90
11736;DHT22;5924;51.398;7.088;2023-03-14T00:03:41;10.70;99.90
11736;DHT22;5924;51.398;7.088;2023-03-14T00:06:08;10.60;99.90
11736;DHT22;5924;51.398;7.088;2023-03-14T00:08:34;10.60;99.90
11736;DHT22;5924;51.398;7.088;2023-03-14T00:11:12;10.60;99.90
11736;DHT22;5924;51.398;7.088;2023-03-14T00:13:38;10.60;99.90
11736;DHT22;5924;51.398;7.088;2023-03-14T00:16:06;10.50;99.90
11736;DHT22;5924;51.398;7.088;2023-03-14T00:18:32;10.50;99.90
11736;DHT22;5924;51.398;7.088;2023-03-14T00:21:00;10.50;99.90
11736;DHT22;5924;51.398;7.088;2023-03-14T00:23:27;10.50;99.90
11736;DHT22;5924;51.398;7.088;2023-03-14T00:25:53;10.60;99.90
11736;DHT22;5924;51.398;7.088;2023-03-14T00:28:18;13.30;99.90
11736;DHT22;5924;51.398;7.088;2023-03-14T00:30:44;10.80;99.90
11736;DHT22;5924;51.398;7.088;2023-03-14T00:33:10;10.80;99.90
11736;DHT22;5924;51.398;7.088;2023-03-14T00:35:35;10.90;99.90
11736;DHT22;5924;51.398;7.088;2023-03-14T00:38:01;10.90;99.90
11736;DHT22;5924;51.398;7.088;2023-03-14T00:40:26;10.80;99.90
11736;DHT22;5924;51.398;7.088;2023-03-14T00:42:52;10.90;99.90
11736;DHT22;5924;51.398;7.088;2023-03-14T00:45:17;10.90;99.90
11736;DHT22;5924;51.398;7.088;2023-03-14T00:47:43;11.00;99.90
11736;DHT22;5924;51.398;7.088;2023-03-14T00:50:11;11.00;99.90
11736;DHT22;5924;51.398;7.088;2023-03-14T00:52:37;11.10;99.90
11736;DHT22;5924;51.398;7.088;2023-03-14T00:55:03;11.10;99.90
11736;DHT22;5924;51.398;7.088;2023-03-14T00:57:28;10.70;99.90
11736;DHT22;5924;51.398;7.088;2023-03-14T00:59:54;10.20;99.90
11736;DHT22;5924;51.398;7.088;2023-03-14T01:02:20;9.70;99.90
11736;DHT22;5924;51.398;7.088;2023-03-14T01:04:48;9.20;99.90
11736;DHT22;5924;51.398;7.088;2023-03-14T01:07:14;8.90;99.90
11736;DHT22;5924;51.398;7.088;2023-03-14T01:09:39;8.80;99.90
11736;DHT22;5924;51.398;7.088;2023-03-14T01:12:05;8.60;99.90
11736;DHT22;5924;51.398;7.088;2023-03-14T01:14:31;8.60;99.90
11736;DHT22;5924;51.398;7.088;2023-03-14T01:16:57;8.50;99.90
11736;DHT22;5924;51.398;7.088;2023-03-14T01:19:27;8.50;99.90
11736;DHT22;5924;51.398;7.088;2023-03-14T01:21:53;8.50;99.90
11736;DHT22;5924;51.398;7.088;2023-03-14T01:24:19;8.40;99.90
11736;DHT22;5924;51.398;7.088;2023-03-14T01:26:45;8.40;99.90
11736;DHT22;5924;51.398;7.088;2023-03-14T01:29:11;8.50;99.90
11736;DHT22;5924;51.398;7.088;2023-03-14T01:31:37;8.50;99.90
11736;DHT22;5924;51.398;7.088;2023-03-14T01:34:03;8.50;99.90
11736;DHT22;5924;51.398;7.088;2023-03-14T01:36:28;8.50;99.90
11736;DHT22;5924;51.398;7.088;2023-03-14T01:38:54;8.50;99.90
11736;DHT22;5924;51.398;7.088;2023-03-14T01:41:22;8.50;99.90
11736;DHT22;5924;51.398;7.088;2023-03-14T01:43:49;8.50;99.90
11736;DHT22;5924;51.398;7.088;2023-03-14T01:51:40;8.40;99.90
11736;DHT22;5924;51.398;7.088;2023-03-14T01:56:47;8.40;99.90
11736;DHT22;5924;51.398;7.088;2023-03-14T01:59:13;8.30;99.90
11736;DHT22;5924;51.398;7.088;2023-03-14T02:01:42;8.30;99.90
11736;DHT22;5924;51.398;7.088;2023-03-14T02:04:09;8.30;99.90
11736;DHT22;5924;51.398;7.088;2023-03-14T02:06:57;8.30;99.90
11736;DHT22;5924;51.398;7.088;2023-03-14T02:09:24;8.30;99.90
11736;DHT22;5924;51.398;7.088;2023-03-14T02:11:50;8.30;99.90
11736;DHT22;5924;51.398;7.088;2023-03-14T02:14:30;8.30;99.90
11736;DHT22;5924;51.398;7.088;2023-03-14T02:16:56;8.30;99.90
11736;DHT22;5924;51.398;7.088;2023-03-14T02:22:14;8.20;99.90
11736;DHT22;5924;51.398;7.088;2023-03-14T02:24:54;8.30;99.90
11736;DHT22;5924;51.398;7.088;2023-03-14T02:27:22;8.30;99.90
11736;DHT22;5924;51.398;7.088;2023-03-14T02:30:10;8.30;99.90
11736;DHT22;5924;51.398;7.088;2023-03-14T02:32:39;8.30;99.90
11736;DHT22;5924;51.398;7.088;2023-03-14T02:35:11;8.30;99.90
11736;DHT22;5924;51.398;7.088;2023-03-14T02:40:06;8.40;99.90
11736;DHT22;5924;51.398;7.088;2023-03-14T02:42:33;8.40;99.90
11736;DHT22;5924;51.398;7.088;2023-03-14T02:47:53;8.40;99.90
11736;DHT22;5924;51.398;7.088;2023-03-14T02:50:23;8.40;99.90
11736;DHT22;5924;51.398;7.088;2023-03-14T02:52:50;8.50;99.90
11736;DHT22;5924;51.398;7.088;2023-03-14T02:55:21;8.40;99.90
11736;DHT22;5924;51.398;7.088;2023-03-14T02:57:46;9.80;99.90
11736;DHT22;5924;51.398;7.088;2023-03-14T03:00:12;8.40;99.90
11736;DHT22;5924;51.398;7.088;2023-03-14T03:02:38;8.40;99.90
11736;DHT22;5924;51.398;7.088;2023-03-14T03:05:04;8.40;99.90
11736;DHT22;5924;51.398;7.088;2023-03-14T03:07:30;8.40;99.90
11736;DHT22;5924;51.398;7.088;2023-03-14T03:09:55;8.40;99.90
11736;DHT22;5924;51.398;7.088;2023-03-14T03:12:21;8.30;99.90
11736;DHT22;5924;51.398;7.088;2023-03-14T03:14:47;8.30;99.90
11736;DHT22;5924;51.398;7.088;2023-03-14T03:17:12;8.30;99.90
11736;DHT22;5924;51.398;7.088;2023-03-14T03:19:38;8.30;99.90
11736;DHT22;5924;51.398;7.088;2023-03-14T03:22:04;8.30;99.90
11736;DHT22;5924;51.398;7.088;2023-03-14T03:24:29;8.40;99.90
11736;DHT22;5924;51.398;7.088;2023-03-14T03:26:55;8.40;99.90
11736;DHT22;5924;51.398;7.088;2023-03-14T03:29:21;8.50;99.90
11736;DHT22;5924;51.398;7.088;2023-03-14T03:31:46;8.40;99.90
11736;DHT22;5924;51.398;7.088;2023-03-14T03:34:13;8.50;99.90
11736;DHT22;5924;51.398;7.088;2023-03-14T03:36:39;8.50;99.90
11736;DHT22;5924;51.398;7.088;2023-03-14T03:39:05;8.50;99.90
11736;DHT22;5924;51.398;7.088;2023-03-14T03:41:31;8.50;99.90
11736;DHT22;5924;51.398;7.088;2023-03-14T03:43:57;8.50;99.90
11736;DHT22;5924;51.398;7.088;2023-03-14T03:46:23;8.60;99.90
11736;DHT22;5924;51.398;7.088;2023-03-14T03:48:54;8.60;99.90
11736;DHT22;5924;51.398;7.088;2023-03-14T03:51:20;8.50;99.90
11736;DHT22;5924;51.398;7.088;2023-03-14T03:53:46;8.50;99.90
11736;DHT22;5924;51.398;7.088;2023-03-14T03:56:12;8.50;99.90
11736;DHT22;5924;51.398;7.088;2023-03-14T03:58:38;11.40;99.90
11736;DHT22;5924;51.398;7.088;2023-03-14T04:01:05;8.40;99.90
11736;DHT22;5924;51.398;7.088;2023-03-14T04:03:32;8.40;99.90
11736;DHT22;5924;51.398;7.088;2023-03-14T04:06:02;8.40;99.90
11736;DHT22;5924;51.398;7.088;2023-03-14T04:08:28;8.40;99.90
11736;DHT22;5924;51.398;7.088;2023-03-14T04:10:56;8.30;99.90
11736;DHT22;5924;51.398;7.088;2023-03-14T04:13:22;8.30;99.90
11736;DHT22;5924;51.398;7.088;2023-03-14T04:15:48;8.30;99.90
11736;DHT22;5924;51.398;7.088;2023-03-14T04:18:14;9.10;99.90
11736;DHT22;5924;51.398;7.088;2023-03-14T04:20:39;8.30;99.90
11736;DHT22;5924;51.398;7.088;2023-03-14T04:23:05;8.30;99.90
11736;DHT22;5924;51.398;7.088;2023-03-14T04:25:30;8.20;99.90
11736;DHT22;5924;51.398;7.088;2023-03-14T04:27:56;8.10;99.90
11736;DHT22;5924;51.398;7.088;2023-03-14T04:30:22;7.00;99.90
11736;DHT22;5924;51.398;7.088;2023-03-14T04:32:47;8.10;99.90
11736;DHT22;5924;51.398;7.088;2023-03-14T04:35:13;8.10;99.90
11736;DHT22;5924;51.398;7.088;2023-03-14T04:37:39;8.00;99.90
11736;DHT22;5924;51.398;7.088;2023-03-14T04:40:05;8.00;99.90
11736;DHT22;5924;51.398;7.088;2023-03-14T04:42:32;8.00;99.90
11736;DHT22;5924;51.398;7.088;2023-03-14T04:44:58;8.00;99.90
11736;DHT22;5924;51.398;7.088;2023-03-14T04:47:23;8.00;99.90
11736;DHT22;5924;51.398;7.088;2023-03-14T04:49:49;8.00;99.90
11736;DHT22;5924;51.398;7.088;2023-03-14T04:52:15;8.10;99.90
11736;DHT22;5924;51.398;7.088;2023-03-14T04:54:40;8.00;99.90
11736;DHT22;5924;51.398;7.088;2023-03-14T04:57:06;8.00;99.90
11736;DHT22;5924;51.398;7.088;2023-03-14T04:59:31;8.00;99.90
11736;DHT22;5924;51.398;7.088;2023-03-14T05:01:57;7.90;99.90
11736;DHT22;5924;51.398;7.088;2023-03-14T05:04:23;7.80;99.90
11736;DHT22;5924;51.398;7.088;2023-03-14T05:06:48;8.80;99.90
11736;DHT22;5924;51.398;7.088;2023-03-14T05:09:14;7.70;99.90
11736;DHT22;5924;51.398;7.088;2023-03-14T05:11:40;7.60;99.90
11736;DHT22;5924;51.398;7.088;2023-03-14T05:14:06;7.60;99.90
11736;DHT22;5924;51.398;7.088;2023-03-14T05:16:31;7.60;99.90
11736;DHT22;5924;51.398;7.088;2023-03-14T05:18:57;7.50;99.90
11736;DHT22;5924;51.398;7.088;2023-03-14T05:21:23;7.50;99.90
11736;DHT22;5924;51.398;7.088;2023-03-14T05:23:48;7.50;99.90
11736;DHT22;5924;51.398;7.088;2023-03-14T05:26:14;7.50;99.90
11736;DHT22;5924;51.398;7.088;2023-03-14T05:28:42;7.50;99.90
11736;DHT22;5924;51.398;7.088;2023-03-14T05:31:08;7.40;99.90
11736;DHT22;5924;51.398;7.088;2023-03-14T05:33:34;7.40;99.90
11736;DHT22;5924;51.398;7.088;2023-03-14T05:35:59;7.50;99.90
11736;DHT22;5924;51.398;7.088;2023-03-14T05:38:25;7.50;99.90
11736;DHT22;5924;51.398;7.088;2023-03-14T05:40:51;7.50;99.90
11736;DHT22;5924;51.398;7.088;2023-03-14T05:43:16;7.50;99.90
11736;DHT22;5924;51.398;7.088;2023-03-14T05:45:42;7.60;99.90
11736;DHT22;5924;51.398;7.088;2023-03-14T05:48:08;7.60;99.90
11736;DHT22;5924;51.398;7.088;2023-03-14T05:50:34;7.60;99.90
11736;DHT22;5924;51.398;7.088;2023-03-14T05:53:00;7.70;99.90
11736;DHT22;5924;51.398;7.088;2023-03-14T05:55:26;7.70;99.90
11736;DHT22;5924;51.398;7.088;2023-03-14T05:57:53;7.70;99.90
11736;DHT22;5924;51.398;7.088;2023-03-14T06:00:19;7.80;99.90
11736;DHT22;5924;51.398;7.088;2023-03-14T06:02:45;7.90;99.90
11736;DHT22;5924;51.398;7.088;2023-03-14T06:05:11;7.90;99.90
11736;DHT22;5924;51.398;7.088;2023-03-14T06:07:36;8.00;99.90
11736;DHT22;5924;51.398;7.088;2023-03-14T06:10:02;8.00;99.90
11736;DHT22;5924;51.398;7.088;2023-03-14T06:12:28;8.00;99.90
11736;DHT22;5924;51.398;7.088;2023-03-14T06:14:54;8.00;99.90
11736;DHT22;5924;51.398;7.088;2023-03-14T06:17:19;8.10;99.90
11736;DHT22;5924;51.398;7.088;2023-03-14T06:19:45;8.10;99.90
11736;DHT22;5924;51.398;7.088;2023-03-14T06:22:11;8.10;99.90
11736;DHT22;5924;51.398;7.088;2023-03-14T06:24:36;8.10;99.90
11736;DHT22;5924;51.398;7.088;2023-03-14T06:27:02;8.20;99.90
11736;DHT22;5924;51.398;7.088;2023-03-14T06:29:29;8.20;99.90
11736;DHT22;5924;51.398;7.088;2023-03-14T06:31:54;8.20;99.90
11736;DHT22;5924;51.398;7.088;2023-03-14T06:34:20;8.20;99.90
11736;DHT22;5924;51.398;7.088;2023-03-14T06:36:46;8.20;99.90
11736;DHT22;5924;51.398;7.088;2023-03-14T06:39:12;8.30;99.90
11736;DHT22;5924;51.398;7.088;2023-03-14T06:41:38;8.30;99.90
11736;DHT22;5924;51.398;7.088;2023-03-14T06:44:04;8.30;99.90
11736;DHT22;5924;51.398;7.088;2023-03-14T06:46:30;8.30;99.90
11736;DHT22;5924;51.398;7.088;2023-03-14T06:48:56;8.30;99.90
11736;DHT22;5924;51.398;7.088;2023-03-14T06:51:21;8.30;99.90
11736;DHT22;5924;51.398;7.088;2023-03-14T06:53:47;8.40;99.90
11736;DHT22;5924;51.398;7.088;2023-03-14T06:56:13;8.40;99.90
11736;DHT22;5924;51.398;7.088;2023-03-14T06:58:38;8.40;99.90
11736;DHT22;5924;51.398;7.088;2023-03-14T07:01:04;8.50;99.90
11736;DHT22;5924;51.398;7.088;2023-03-14T07:03:30;8.50;99.90
11736;DHT22;5924;51.398;7.088;2023-03-14T07:05:56;8.50;99.90
11736;DHT22;5924;51.398;7.088;2023-03-14T07:08:22;8.50;99.90
11736;DHT22;5924;51.398;7.088;2023-03-14T07:10:47;8.50;99.90
11736;DHT22;5924;51.398;7.088;2023-03-14T07:13:13;8.50;99.90
11736;DHT22;5924;51.398;7.088;2023-03-14T07:15:39;8.60;99.90
11736;DHT22;5924;51.398;7.088;2023-03-14T07:18:04;8.60;99.90
11736;DHT22;5924;51.398;7.088;2023-03-14T07:20:30;8.60;99.90
11736;DHT22;5924;51.398;7.088;2023-03-14T07:22:57;8.70;99.90
11736;DHT22;5924;51.398;7.088;2023-03-14T07:25:25;8.80;99.90
11736;DHT22;5924;51.398;7.088;2023-03-14T07:27:51;8.80;99.90
11736;DHT22;5924;51.398;7.088;2023-03-14T07:30:17;8.80;99.90
11736;DHT22;5924;51.398;7.088;2023-03-14T07:32:42;8.90;99.90
11736;DHT22;5924;51.398;7.088;2023-03-14T07:35:08;8.90;99.90
11736;DHT22;5924;51.398;7.088;2023-03-14T07:37:34;9.00;99.90
11736;DHT22;5924;51.398;7.088;2023-03-14T07:39:59;9.00;99.90
11736;DHT22;5924;51.398;7.088;2023-03-14T07:42:25;9.00;99.90
11736;DHT22;5924;51.398;7.088;2023-03-14T07:44:51;9.00;99.90
11736;DHT22;5924;51.398;7.088;2023-03-14T07:47:16;9.00;99.90
11736;DHT22;5924;51.398;7.088;2023-03-14T07:49:42;9.00;99.90
11736;DHT22;5924;51.398;7.088;2023-03-14T07:52:08;9.00;99.90
11736;DHT22;5924;51.398;7.088;2023-03-14T07:54:33;9.00;99.90
11736;DHT22;5924;51.398;7.088;2023-03-14T07:56:59;9.10;99.90
11736;DHT22;5924;51.398;7.088;2023-03-14T07:59:26;9.10;99.90
11736;DHT22;5924;51.398;7.088;2023-03-14T08:01:52;9.10;99.90
11736;DHT22;5924;51.398;7.088;2023-03-14T08:04:18;9.90;99.90
11736;DHT22;5924;51.398;7.088;2023-03-14T08:06:43;9.20;99.90
11736;DHT22;5924;51.398;7.088;2023-03-14T08:09:09;9.20;99.90
11736;DHT22;5924;51.398;7.088;2023-03-14T08:11:35;9.30;99.90
11736;DHT22;5924;51.398;7.088;2023-03-14T08:14:01;9.40;99.90
11736;DHT22;5924;51.398;7.088;2023-03-14T08:16:27;9.40;99.90
11736;DHT22;5924;51.398;7.088;2023-03-14T08:18:52;9.40;99.90
11736;DHT22;5924;51.398;7.088;2023-03-14T08:21:18;9.50;99.90
11736;DHT22;5924;51.398;7.088;2023-03-14T08:23:44;9.50;99.90
11736;DHT22;5924;51.398;7.088;2023-03-14T08:26:09;9.60;99.90
11736;DHT22;5924;51.398;7.088;2023-03-14T08:28:35;9.70;99.90
11736;DHT22;5924;51.398;7.088;2023-03-14T08:31:01;9.80;99.90
11736;DHT22;5924;51.398;7.088;2023-03-14T08:33:28;9.80;99.90
11736;DHT22;5924;51.398;7.088;2023-03-14T08:35:59;9.80;99.90
11736;DHT22;5924;51.398;7.088;2023-03-14T08:38:25;9.90;99.90
11736;DHT22;5924;51.398;7.088;2023-03-14T08:41:01;10.80;99.90
11736;DHT22;5924;51.398;7.088;2023-03-14T08:43:28;9.90;99.90
11736;DHT22;5924;51.398;7.088;2023-03-14T08:45:57;9.90;99.90
11736;DHT22;5924;51.398;7.088;2023-03-14T08:48:23;9.90;99.90
11736;DHT22;5924;51.398;7.088;2023-03-14T08:50:49;9.80;99.90
11736;DHT22;5924;51.398;7.088;2023-03-14T08:53:15;9.80;99.90
11736;DHT22;5924;51.398;7.088;2023-03-14T08:55:40;9.90;99.90
11736;DHT22;5924;51.398;7.088;2023-03-14T08:58:06;10.00;99.90
11736;DHT22;5924;51.398;7.088;2023-03-14T09:00:31;10.00;99.90
11736;DHT22;5924;51.398;7.088;2023-03-14T09:02:57;10.10;99.90
11736;DHT22;5924;51.398;7.088;2023-03-14T09:05:23;10.20;99.90
11736;DHT22;5924;51.398;7.088;2023-03-14T09:07:48;10.10;99.90
11736;DHT22;5924;51.398;7.088;2023-03-14T09:10:14;10.10;99.90
11736;DHT22;5924;51.398;7.088;2023-03-14T09:12:39;10.00;99.90
11736;DHT22;5924;51.398;7.088;2023-03-14T09:15:06;9.90;99.90
11736;DHT22;5924;51.398;7.088;2023-03-14T09:17:31;9.70;99.90
11736;DHT22;5924;51.398;7.088;2023-03-14T09:19:57;9.60;99.90
11736;DHT22;5924;51.398;7.088;2023-03-14T09:22:23;9.60;99.90
11736;DHT22;5924;51.398;7.088;2023-03-14T09:24:49;9.60;99.90
11736;DHT22;5924;51.398;7.088;2023-03-14T09:27:14;9.60;99.90
11736;DHT22;5924;51.398;7.088;2023-03-14T09:29:40;9.50;99.90
11736;DHT22;5924;51.398;7.088;2023-03-14T09:32:06;9.50;99.90
11736;DHT22;5924;51.398;7.088;2023-03-14T09:34:32;9.40;99.90
11736;DHT22;5924;51.398;7.088;2023-03-14T09:36:57;9.40;99.90
11736;DHT22;5924;51.398;7.088;2023-03-14T09:39:23;9.00;99.90
11736;DHT22;5924;51.398;7.088;2023-03-14T09:41:51;8.50;99.90
11736;DHT22;5924;51.398;7.088;2023-03-14T09:44:34;8.20;99.90
11736;DHT22;5924;51.398;7.088;2023-03-14T09:47:09;7.90;99.90
11736;DHT22;5924;51.398;7.088;2023-03-14T09:49:39;7.80;99.90
11736;DHT22;5924;51.398;7.088;2023-03-14T09:55:16;7.70;99.90
11736;DHT22;5924;51.398;7.088;2023-03-14T09:57:43;7.60;99.90
11736;DHT22;5924;51.398;7.088;2023-03-14T10:00:21;7.50;99.90
11736;DHT22;5924;51.398;7.088;2023-03-14T10:02:56;7.50;99.90
11736;DHT22;5924;51.398;7.088;2023-03-14T10:05:25;7.40;99.90
11736;DHT22;5924;51.398;7.088;2023-03-14T10:07:51;7.40;99.90
11736;DHT22;5924;51.398;7.088;2023-03-14T10:10:21;7.30;99.90
11736;DHT22;5924;51.398;7.088;2023-03-14T10:12:58;7.20;99.90
11736;DHT22;5924;51.398;7.088;2023-03-14T10:15:33;7.20;99.90
11736;DHT22;5924;51.398;7.088;2023-03-14T10:18:01;7.20;99.90
11736;DHT22;5924;51.398;7.088;2023-03-14T10:20:39;7.10;99.90
11736;DHT22;5924;51.398;7.088;2023-03-14T10:25:46;7.10;99.90
11736;DHT22;5924;51.398;7.088;2023-03-14T10:28:26;7.10;99.90
11736;DHT22;5924;51.398;7.088;2023-03-14T10:30:52;7.10;99.90
11736;DHT22;5924;51.398;7.088;2023-03-14T10:35:44;7.10;99.90
11736;DHT22;5924;51.398;7.088;2023-03-14T10:38:16;7.10;99.90
11736;DHT22;5924;51.398;7.088;2023-03-14T10:40:50;7.10;99.90
11736;DHT22;5924;51.398;7.088;2023-03-14T10:43:38;7.10;99.90
11736;DHT22;5924;51.398;7.088;2023-03-14T10:46:17;7.00;99.90
11736;DHT22;5924;51.398;7.088;2023-03-14T10:48:44;7.00;99.90
11736;DHT22;5924;51.398;7.088;2023-03-14T10:56:25;6.80;99.90
11736;DHT22;5924;51.398;7.088;2023-03-14T10:58:53;6.60;99.90
11736;DHT22;5924;51.398;7.088;2023-03-14T11:01:51;6.50;99.90
11736;DHT22;5924;51.398;7.088;2023-03-14T11:10:00;6.60;99.90
11736;DHT22;5924;51.398;7.088;2023-03-14T11:23:38;6.20;99.90
11736;DHT22;5924;51.398;7.088;2023-03-14T11:28:48;6.30;99.90
11736;DHT22;5924;51.398;7.088;2023-03-14T11:34:15;6.40;99.90
11736;DHT22;5924;51.398;7.088;2023-03-14T11:37:00;6.20;99.90
11736;DHT22;5924;51.398;7.088;2023-03-14T11:39:44;6.10;99.90
11736;DHT22;5924;51.398;7.088;2023-03-14T11:42:15;6.00;99.90
11736;DHT22;5924;51.398;7.088;2023-03-14T11:44:44;5.80;99.90
11736;DHT22;5924;51.398;7.088;2023-03-14T11:47:24;7.80;99.90
11736;DHT22;5924;51.398;7.088;2023-03-14T11:50:06;5.90;99.90
11736;DHT22;5924;51.398;7.088;2023-03-14T11:52:43;6.00;99.90
11736;DHT22;5924;51.398;7.088;2023-03-14T11:55:48;6.00;99.90
11736;DHT22;5924;51.398;7.088;2023-03-14T11:58:31;6.00;99.90
11736;DHT22;5924;51.398;7.088;2023-03-14T12:01:02;6.10;99.90
11736;DHT22;5924;51.398;7.088;2023-03-14T12:03:35;6.00;99.90
11736;DHT22;5924;51.398;7.088;2023-03-14T12:08:58;5.90;99.90
11736;DHT22;5924;51.398;7.088;2023-03-14T12:11:39;5.90;99.90
11736;DHT22;5924;51.398;7.088;2023-03-14T12:14:19;6.20;99.90
11736;DHT22;5924;51.398;7.088;2023-03-14T12:16:46;6.30;99.90
11736;DHT22;5924;51.398;7.088;2023-03-14T12:22:41;6.00;99.90
11736;DHT22;5924;51.398;7.088;2023-03-14T12:24:47;5.90;99.90
11736;DHT22;5924;51.398;7.088;2023-03-14T12:27:38;6.10;99.90
11736;DHT22;5924;51.398;7.088;2023-03-14T12:30:18;6.40;99.90
11736;DHT22;5924;51.398;7.088;2023-03-14T12:35:42;7.10;99.90
11736;DHT22;5924;51.398;7.088;2023-03-14T12:41:29;7.80;99.90
11736;DHT22;5924;51.398;7.088;2023-03-14T12:43:55;7.90;99.90
11736;DHT22;5924;51.398;7.088;2023-03-14T12:46:26;7.70;99.90
11736;DHT22;5924;51.398;7.088;2023-03-14T12:51:38;7.40;99.90
11736;DHT22;5924;51.398;7.088;2023-03-14T12:57:06;7.10;99.90
11736;DHT22;5924;51.398;7.088;2023-03-14T13:05:17;6.50;99.90
11736;DHT22;5924;51.398;7.088;2023-03-14T13:10:39;5.80;99.90
11736;DHT22;5924;51.398;7.088;2023-03-14T13:13:24;4.70;99.90
11736;DHT22;5924;51.398;7.088;2023-03-14T13:15:58;5.60;99.90
11736;DHT22;5924;51.398;7.088;2023-03-14T13:21:26;5.80;99.90
11736;DHT22;5924;51.398;7.088;2023-03-14T13:26:34;6.30;99.90
11736;DHT22;5924;51.398;7.088;2023-03-14T13:29:07;6.30;99.90
11736;DHT22;5924;51.398;7.088;2023-03-14T13:31:33;6.50;99.90
11736;DHT22;5924;51.398;7.088;2023-03-14T13:34:06;6.10;99.90
11736;DHT22;5924;51.398;7.088;2023-03-14T13:36:36;6.10;99.90
11736;DHT22;5924;51.398;7.088;2023-03-14T13:39:02;6.10;99.90
11736;DHT22;5924;51.398;7.088;2023-03-14T13:41:30;5.80;99.90
11736;DHT22;5924;51.398;7.088;2023-03-14T13:44:03;5.70;99.90
11736;DHT22;5924;51.398;7.088;2023-03-14T13:46:34;5.80;99.90
11736;DHT22;5924;51.398;7.088;2023-03-14T13:49:03;5.90;99.90
11736;DHT22;5924;51.398;7.088;2023-03-14T13:51:30;6.10;99.90
11736;DHT22;5924;51.398;7.088;2023-03-14T13:53:58;6.30;99.90
11736;DHT22;5924;51.398;7.088;2023-03-14T13:56:30;6.20;99.90
11736;DHT22;5924;51.398;7.088;2023-03-14T13:58:56;6.20;99.90
11736;DHT22;5924;51.398;7.088;2023-03-14T14:01:36;6.40;99.90
11736;DHT22;5924;51.398;7.088;2023-03-14T14:04:08;6.80;99.90
11736;DHT22;5924;51.398;7.088;2023-03-14T14:06:39;7.30;99.90
11736;DHT22;5924;51.398;7.088;2023-03-14T14:09:39;7.40;99.90
11736;DHT22;5924;51.398;7.088;2023-03-14T14:12:08;8.10;99.90
11736;DHT22;5924;51.398;7.088;2023-03-14T14:17:42;10.60;99.90
11736;DHT22;5924;51.398;7.088;2023-03-14T14:20:20;10.50;99.90
11736;DHT22;5924;51.398;7.088;2023-03-14T14:22:46;10.10;99.90
11736;DHT22;5924;51.398;7.088;2023-03-14T14:25:13;9.50;99.90
11736;DHT22;5924;51.398;7.088;2023-03-14T14:27:42;9.10;99.90
11736;DHT22;5924;51.398;7.088;2023-03-14T14:32:44;9.20;99.90
11736;DHT22;5924;51.398;7.088;2023-03-14T14:35:22;9.20;99.90
11736;DHT22;5924;51.398;7.088;2023-03-14T14:37:48;9.40;99.90
11736;DHT22;5924;51.398;7.088;2023-03-14T14:40:24;8.50;99.90
11736;DHT22;5924;51.398;7.088;2023-03-14T14:42:50;9.50;99.90
11736;DHT22;5924;51.398;7.088;2023-03-14T14:45:23;9.10;99.90
11736;DHT22;5924;51.398;7.088;2023-03-14T14:47:52;8.90;99.90
11736;DHT22;5924;51.398;7.088;2023-03-14T14:50:36;7.60;99.90
11736;DHT22;5924;51.398;7.088;2023-03-14T14:53:19;8.40;99.90
11736;DHT22;5924;51.398;7.088;2023-03-14T14:55:49;8.20;99.90
11736;DHT22;5924;51.398;7.088;2023-03-14T15:03:31;8.20;99.90
11736;DHT22;5924;51.398;7.088;2023-03-14T15:05:58;8.20;99.90
11736;DHT22;5924;51.398;7.088;2023-03-14T15:08:27;8.30;99.90
11736;DHT22;5924;51.398;7.088;2023-03-14T15:10:54;8.30;99.90
11736;DHT22;5924;51.398;7.088;2023-03-14T15:13:19;8.30;99.90
11736;DHT22;5924;51.398;7.088;2023-03-14T15:15:45;8.30;99.90
11736;DHT22;5924;51.398;7.088;2023-03-14T15:18:17;8.50;99.90
11736;DHT22;5924;51.398;7.088;2023-03-14T15:20:44;8.60;99.90
11736;DHT22;5924;51.398;7.088;2023-03-14T15:23:11;8.70;99.90
11736;DHT22;5924;51.398;7.088;2023-03-14T15:25:38;8.60;99.90
11736;DHT22;5924;51.398;7.088;2023-03-14T15:28:28;8.40;99.90
11736;DHT22;5924;51.398;7.088;2023-03-14T15:30:58;8.20;99.90
11736;DHT22;5924;51.398;7.088;2023-03-14T15:33:25;8.10;99.90
11736;DHT22;5924;51.398;7.088;2023-03-14T15:35:52;8.10;99.90
11736;DHT22;5924;51.398;7.088;2023-03-14T15:38:19;8.00;99.90
11736;DHT22;5924;51.398;7.088;2023-03-14T15:40:49;7.80;99.90
11736;DHT22;5924;51.398;7.088;2023-03-14T15:43:16;7.70;99.90
11736;DHT22;5924;51.398;7.088;2023-03-14T15:45:42;7.50;99.90
11736;DHT22;5924;51.398;7.088;2023-03-14T15:48:15;7.40;99.90
11736;DHT22;5924;51.398;7.088;2023-03-14T15:50:41;7.40;99.90
11736;DHT22;5924;51.398;7.088;2023-03-14T15:53:07;7.30;99.90
11736;DHT22;5924;51.398;7.088;2023-03-14T15:55:33;7.10;99.90
11736;DHT22;5924;51.398;7.088;2023-03-14T15:57:58;7.00;99.90
11736;DHT22;5924;51.398;7.088;2023-03-14T16:00:25;6.90;99.90
11736;DHT22;5924;51.398;7.088;2023-03-14T16:02:51;6.80;99.90
11736;DHT22;5924;51.398;7.088;2023-03-14T16:05:17;7.40;99.90
11736;DHT22;5924;51.398;7.088;2023-03-14T16:07:46;6.80;99.90
11736;DHT22;5924;51.398;7.088;2023-03-14T16:10:13;6.80;99.90
11736;DHT22;5924;51.398;7.088;2023-03-14T16:12:40;6.70;99.90
11736;DHT22;5924;51.398;7.088;2023-03-14T16:15:07;6.70;99.90
11736;DHT22;5924;51.398;7.088;2023-03-14T16:17:33;6.70;99.90
11736;DHT22;5924;51.398;7.088;2023-03-14T16:19:59;6.70;99.90
11736;DHT22;5924;51.398;7.088;2023-03-14T16:22:25;6.70;99.90
11736;DHT22;5924;51.398;7.088;2023-03-14T16:24:50;6.60;99.90
11736;DHT22;5924;51.398;7.088;2023-03-14T16:27:16;6.60;99.90
11736;DHT22;5924;51.398;7.088;2023-03-14T16:29:42;6.70;99.90
11736;DHT22;5924;51.398;7.088;2023-03-14T16:32:08;6.50;99.90
11736;DHT22;5924;51.398;7.088;2023-03-14T16:34:37;6.40;99.90
11736;DHT22;5924;51.398;7.088;2023-03-14T16:37:04;6.40;99.90
11736;DHT22;5924;51.398;7.088;2023-03-14T16:39:30;6.30;99.90
11736;DHT22;5924;51.398;7.088;2023-03-14T16:41:57;6.30;99.90
11736;DHT22;5924;51.398;7.088;2023-03-14T16:44:23;6.20;99.90
11736;DHT22;5924;51.398;7.088;2023-03-14T16:46:48;6.20;99.90
11736;DHT22;5924;51.398;7.088;2023-03-14T16:49:14;6.20;99.90
11736;DHT22;5924;51.398;7.088;2023-03-14T16:51:40;6.10;99.90
11736;DHT22;5924;51.398;7.088;2023-03-14T16:54:06;6.10;99.90
11736;DHT22;5924;51.398;7.088;2023-03-14T16:56:32;6.10;99.90
11736;DHT22;5924;51.398;7.088;2023-03-14T16:58:58;6.00;99.90
11736;DHT22;5924;51.398;7.088;2023-03-14T17:01:23;5.90;99.90
11736;DHT22;5924;51.398;7.088;2023-03-14T17:03:50;5.90;99.90
11736;DHT22;5924;51.398;7.088;2023-03-14T17:06:19;5.80;99.90
11736;DHT22;5924;51.398;7.088;2023-03-14T17:08:45;5.80;99.90
11736;DHT22;5924;51.398;7.088;2023-03-14T17:11:11;4.00;99.90
11736;DHT22;5924;51.398;7.088;2023-03-14T17:13:38;5.70;99.90
11736;DHT22;5924;51.398;7.088;2023-03-14T17:16:03;5.60;99.90
11736;DHT22;5924;51.398;7.088;2023-03-14T17:18:30;5.60;99.90
11736;DHT22;5924;51.398;7.088;2023-03-14T17:20:56;5.50;99.90
11736;DHT22;5924;51.398;7.088;2023-03-14T17:23:27;6.20;99.90
11736;DHT22;5924;51.398;7.088;2023-03-14T17:25:53;5.50;99.90
11736;DHT22;5924;51.398;7.088;2023-03-14T17:28:21;5.50;99.90
11736;DHT22;5924;51.398;7.088;2023-03-14T17:30:48;5.50;99.90
11736;DHT22;5924;51.398;7.088;2023-03-14T17:33:14;5.40;99.90
11736;DHT22;5924;51.398;7.088;2023-03-14T17:35:42;5.30;99.90
11736;DHT22;5924;51.398;7.088;2023-03-14T17:38:08;5.20;99.90
11736;DHT22;5924;51.398;7.088;2023-03-14T17:40:34;5.30;99.90